createdAt,value
2018-06-03T00:01:41.758Z,20.30
2018-06-03T00:04:07.986Z,20.30
2018-06-03T00:06:34.155Z,20.20
2018-06-03T00:09:00.309Z,20.20
2018-06-03T00:11:26.493Z,20.20
2018-06-03T00:13:52.666Z,20.20
2018-06-03T00:16:18.818Z,20.20
2018-06-03T00:18:45.008Z,20.30
2018-06-03T00:21:33.898Z,20.20
2018-06-03T00:24:00.077Z,20.10
2018-06-03T00:26:26.241Z,20.10
2018-06-03T00:28:53.522Z,20.10
2018-06-03T00:31:19.723Z,20.10
2018-06-03T00:33:45.900Z,20.10
2018-06-03T00:36:24.389Z,19.90
2018-06-03T00:38:50.557Z,19.70
2018-06-03T00:41:17.829Z,19.70
2018-06-03T00:43:44.006Z,19.70
2018-06-03T00:46:10.158Z,19.70
2018-06-03T00:48:36.310Z,19.70
2018-06-03T00:51:02.506Z,19.50
2018-06-03T00:53:28.666Z,19.70
2018-06-03T00:55:54.824Z,19.50
2018-06-03T00:58:21.006Z,19.40
2018-06-03T01:03:15.194Z,19.30
2018-06-03T01:05:41.385Z,19.30
2018-06-03T01:08:07.550Z,19.30
2018-06-03T01:10:33.715Z,19.30
2018-06-03T01:12:59.897Z,19.30
2018-06-03T01:15:26.058Z,19.30
2018-06-03T01:17:52.232Z,19.10
2018-06-03T01:20:18.422Z,19.20
2018-06-03T01:22:44.598Z,18.90
2018-06-03T01:25:10.750Z,19.00
2018-06-03T01:27:36.946Z,19.00
2018-06-03T01:30:03.130Z,19.10
2018-06-03T01:32:29.291Z,19.00
2018-06-03T01:34:56.594Z,19.00
2018-06-03T01:37:22.749Z,19.00
2018-06-03T01:39:48.918Z,18.90
2018-06-03T01:42:15.090Z,18.90
2018-06-03T01:44:42.371Z,19.10
2018-06-03T01:47:08.530Z,19.10
2018-06-03T01:49:34.703Z,19.00
2018-06-03T01:52:00.854Z,19.00
2018-06-03T01:54:27.010Z,18.80
2018-06-03T01:56:54.298Z,18.90
2018-06-03T01:59:20.466Z,18.90
2018-06-03T02:01:46.618Z,18.90
2018-06-03T02:04:12.793Z,19.00
2018-06-03T02:06:38.956Z,18.90
2018-06-03T02:09:05.143Z,18.80
2018-06-03T02:11:31.331Z,18.90
2018-06-03T02:16:25.362Z,18.80
2018-06-03T02:18:51.537Z,18.70
2018-06-03T02:21:17.694Z,18.70
2018-06-03T02:23:43.854Z,18.80
2018-06-03T02:26:10.028Z,18.80
2018-06-03T02:28:36.195Z,18.70
2018-06-03T02:31:02.349Z,18.80
2018-06-03T02:33:28.528Z,18.70
2018-06-03T02:35:56.175Z,18.80
2018-06-03T02:38:22.326Z,18.70
2018-06-03T02:40:48.502Z,18.70
2018-06-03T02:43:14.650Z,18.60
2018-06-03T02:45:40.799Z,18.50
2018-06-03T02:48:06.984Z,18.50
2018-06-03T02:50:33.146Z,18.50
2018-06-03T02:52:59.327Z,18.50
2018-06-03T02:55:25.520Z,18.40
2018-06-03T02:57:52.827Z,18.40
2018-06-03T03:00:19.003Z,18.40
2018-06-03T03:02:45.515Z,18.30
2018-06-03T03:05:11.979Z,18.30
2018-06-03T03:07:38.419Z,18.30
2018-06-03T03:10:04.983Z,18.20
2018-06-03T03:12:31.424Z,18.20
2018-06-03T03:14:57.861Z,18.30
2018-06-03T03:17:24.071Z,18.40
2018-06-03T03:19:50.235Z,18.30
2018-06-03T03:22:16.398Z,18.40
2018-06-03T03:24:42.569Z,18.30
2018-06-03T03:27:09.847Z,18.20
2018-06-03T03:32:05.035Z,18.10
2018-06-03T03:34:31.193Z,18.20
2018-06-03T03:36:57.367Z,18.20
2018-06-03T03:39:24.647Z,18.30
2018-06-03T03:41:50.814Z,18.30
2018-06-03T03:44:16.970Z,18.10
2018-06-03T03:46:43.154Z,18.00
2018-06-03T03:49:10.431Z,18.10
2018-06-03T03:51:36.596Z,18.00
2018-06-03T03:54:02.783Z,18.00
2018-06-03T03:56:28.937Z,17.90
2018-06-03T03:58:56.205Z,17.90
2018-06-03T04:01:23.502Z,17.90
2018-06-03T04:03:49.675Z,18.00
